Davilla, TX (76523)

11:47 AM CDT on August 24, 2016 (GMT -0500)
Bryant Station | | Change Station

Elev 443 ft 30.86 °N, 97.20 °W | Updated 30 seconds ago

Scattered Clouds
Scattered Clouds
85.5 °F
Feels Like 89 °F
N
2.7
Wind Variable Wind from South
Gusts 4.9 mph

Today
High -- | Low -- °F
--% Chance of Precip.
Yesterday
High -- | Low -- °F
Precip. -- in
Pressure 30.14 in
Visibility 10.0 miles
Clouds Scattered Clouds 2700 ft
Scattered Clouds 3300 ft
Heat Index 89 °F
Dew Point 68 °F
Humidity 57%
Rainfall 0.00 in
Snow Depth Not available.
7:00 AM 8:00 PM
Waning Gibbous, 55% visible
METAR KT35 241635Z AUTO 22008KT 10SM SCT027 SCT033 30/23 A3014 RMK AO2 T02950228
Pressure 30.14 in
Visibility 10.0 miles
Clouds Scattered Clouds 2700 ft
Scattered Clouds 3300 ft
Heat Index 89 °F
Dew Point 68 °F
Humidity 57%
Rainfall 0.00 in
Snow Depth Not available.
7:00 AM 8:00 PM
Waning Gibbous, 55% visible
METAR KT35 241635Z AUTO 22008KT 10SM SCT027 SCT033 30/23 A3014 RMK AO2 T02950228

10-Day Weather Forecast

Almanac

Astronomy

Aug. 24, 2016 Rise Set
Actual Time
Civil Twilight
Nautical Twilight
Astronomical Twilight
Moon
Length of Visible Light
Length of Day
Tomorrow will be .
, % of the Moon is Illuminated

Today's Extremes

State Highs State Lows

Community

WunderPhotos

Upload Photos

1,934,652 photos uploaded!

WunderBlog® & News

Nearby

Air Quality

  Air Quality AQ Index Pollutant
Not available.

Snow Depth

Station Depth Elevation

Earthquake Activity

City Distance Mag. Time & Date
Minimum magnitude displayed is 2.5.

Coastal Water Temperatures

Place Temperature

Stations

Nearby Weather Stations

Station Location Temp. Windchill Dew Point Humidity Wind Precip. Elev Updated Type
                   

Watches & Warnings

There are currently no watches in effect.